sensor_id;sensor_type;location;lat;lon;timestamp;P1;durP1;ratioP1;P2;durP2;ratioP2
75593;SDS011;64176;49.156;7.810;2023-05-06T00:01:19;7.28;;;5.55;;
75593;SDS011;64176;49.156;7.810;2023-05-06T00:04:03;6.50;;;5.15;;
75593;SDS011;64176;49.156;7.810;2023-05-06T00:06:50;8.88;;;6.28;;
75593;SDS011;64176;49.156;7.810;2023-05-06T00:09:38;9.40;;;5.22;;
75593;SDS011;64176;49.156;7.810;2023-05-06T00:12:22;13.63;;;5.55;;
75593;SDS011;64176;49.156;7.810;2023-05-06T00:15:06;6.25;;;4.82;;
75593;SDS011;64176;49.156;7.810;2023-05-06T00:17:50;6.57;;;4.72;;
75593;SDS011;64176;49.156;7.810;2023-05-06T00:20:38;7.78;;;4.88;;
75593;SDS011;64176;49.156;7.810;2023-05-06T00:23:25;7.78;;;3.85;;
75593;SDS011;64176;49.156;7.810;2023-05-06T00:26:09;5.05;;;4.30;;
75593;SDS011;64176;49.156;7.810;2023-05-06T00:28:53;4.97;;;3.70;;
75593;SDS011;64176;49.156;7.810;2023-05-06T00:31:37;5.40;;;4.07;;
75593;SDS011;64176;49.156;7.810;2023-05-06T00:34:21;5.45;;;4.20;;
75593;SDS011;64176;49.156;7.810;2023-05-06T00:37:05;8.38;;;4.43;;
75593;SDS011;64176;49.156;7.810;2023-05-06T00:39:49;7.25;;;5.22;;
75593;SDS011;64176;49.156;7.810;2023-05-06T00:42:33;23.63;;;7.13;;
75593;SDS011;64176;49.156;7.810;2023-05-06T00:45:17;9.52;;;6.15;;
75593;SDS011;64176;49.156;7.810;2023-05-06T00:48:01;7.05;;;5.50;;
75593;SDS011;64176;49.156;7.810;2023-05-06T00:50:50;6.38;;;5.03;;
75593;SDS011;64176;49.156;7.810;2023-05-06T00:53:35;8.70;;;5.35;;
75593;SDS011;64176;49.156;7.810;2023-05-06T00:59:09;18.83;;;6.22;;
75593;SDS011;64176;49.156;7.810;2023-05-06T01:01:53;6.97;;;5.07;;
75593;SDS011;64176;49.156;7.810;2023-05-06T01:04:40;9.90;;;6.85;;
75593;SDS011;64176;49.156;7.810;2023-05-06T01:07:32;9.25;;;6.22;;
75593;SDS011;64176;49.156;7.810;2023-05-06T01:10:35;18.27;;;6.18;;
75593;SDS011;64176;49.156;7.810;2023-05-06T01:16:27;59.17;;;12.43;;
75593;SDS011;64176;49.156;7.810;2023-05-06T01:22:20;61.85;;;12.90;;
75593;SDS011;64176;49.156;7.810;2023-05-06T01:25:19;21.20;;;6.25;;
75593;SDS011;64176;49.156;7.810;2023-05-06T01:28:05;32.50;;;7.82;;
75593;SDS011;64176;49.156;7.810;2023-05-06T01:31:07;7.18;;;4.85;;
75593;SDS011;64176;49.156;7.810;2023-05-06T01:34:08;10.75;;;5.43;;
75593;SDS011;64176;49.156;7.810;2023-05-06T01:37:06;7.30;;;5.15;;
75593;SDS011;64176;49.156;7.810;2023-05-06T01:39:57;8.18;;;4.90;;
75593;SDS011;64176;49.156;7.810;2023-05-06T01:42:48;13.20;;;5.65;;
75593;SDS011;64176;49.156;7.810;2023-05-06T01:45:34;6.35;;;4.53;;
75593;SDS011;64176;49.156;7.810;2023-05-06T01:48:22;7.43;;;5.13;;
75593;SDS011;64176;49.156;7.810;2023-05-06T01:51:14;7.43;;;4.88;;
75593;SDS011;64176;49.156;7.810;2023-05-06T01:53:58;8.10;;;5.38;;
75593;SDS011;64176;49.156;7.810;2023-05-06T01:56:43;6.32;;;4.45;;
75593;SDS011;64176;49.156;7.810;2023-05-06T01:59:27;12.50;;;5.28;;
75593;SDS011;64176;49.156;7.810;2023-05-06T02:02:11;6.95;;;4.50;;
75593;SDS011;64176;49.156;7.810;2023-05-06T02:04:56;5.53;;;4.50;;
75593;SDS011;64176;49.156;7.810;2023-05-06T02:07:40;6.35;;;4.93;;
75593;SDS011;64176;49.156;7.810;2023-05-06T02:10:25;6.65;;;4.80;;
75593;SDS011;64176;49.156;7.810;2023-05-06T02:13:16;6.05;;;4.80;;
75593;SDS011;64176;49.156;7.810;2023-05-06T02:16:01;6.53;;;5.13;;
75593;SDS011;64176;49.156;7.810;2023-05-06T02:18:46;5.82;;;4.07;;
75593;SDS011;64176;49.156;7.810;2023-05-06T02:21:30;6.43;;;4.50;;
75593;SDS011;64176;49.156;7.810;2023-05-06T02:24:15;7.13;;;5.75;;
75593;SDS011;64176;49.156;7.810;2023-05-06T02:26:59;4.75;;;4.10;;
75593;SDS011;64176;49.156;7.810;2023-05-06T02:29:46;6.57;;;4.57;;
75593;SDS011;64176;49.156;7.810;2023-05-06T02:32:30;5.40;;;4.50;;
75593;SDS011;64176;49.156;7.810;2023-05-06T02:35:13;5.60;;;4.00;;
75593;SDS011;64176;49.156;7.810;2023-05-06T02:37:57;6.57;;;4.85;;
75593;SDS011;64176;49.156;7.810;2023-05-06T02:40:42;6.95;;;5.30;;
75593;SDS011;64176;49.156;7.810;2023-05-06T02:43:26;8.35;;;5.47;;
75593;SDS011;64176;49.156;7.810;2023-05-06T02:46:09;5.85;;;4.63;;
75593;SDS011;64176;49.156;7.810;2023-05-06T02:48:54;5.90;;;4.75;;
75593;SDS011;64176;49.156;7.810;2023-05-06T02:51:38;6.28;;;4.05;;
75593;SDS011;64176;49.156;7.810;2023-05-06T02:54:22;5.50;;;4.65;;
75593;SDS011;64176;49.156;7.810;2023-05-06T02:57:06;5.50;;;4.03;;
75593;SDS011;64176;49.156;7.810;2023-05-06T02:59:50;5.65;;;4.43;;
75593;SDS011;64176;49.156;7.810;2023-05-06T03:02:34;4.60;;;3.95;;
75593;SDS011;64176;49.156;7.810;2023-05-06T03:05:19;7.03;;;4.70;;
75593;SDS011;64176;49.156;7.810;2023-05-06T03:08:04;5.68;;;4.05;;
75593;SDS011;64176;49.156;7.810;2023-05-06T03:10:49;4.57;;;3.85;;
75593;SDS011;64176;49.156;7.810;2023-05-06T03:13:35;6.00;;;4.57;;
75593;SDS011;64176;49.156;7.810;2023-05-06T03:16:25;5.18;;;4.10;;
75593;SDS011;64176;49.156;7.810;2023-05-06T03:19:12;6.03;;;4.50;;
75593;SDS011;64176;49.156;7.810;2023-05-06T03:21:57;5.18;;;3.85;;
75593;SDS011;64176;49.156;7.810;2023-05-06T03:27:27;5.10;;;3.47;;
75593;SDS011;64176;49.156;7.810;2023-05-06T03:30:21;5.65;;;3.95;;
75593;SDS011;64176;49.156;7.810;2023-05-06T03:33:07;5.00;;;4.50;;
75593;SDS011;64176;49.156;7.810;2023-05-06T03:35:51;5.97;;;4.30;;
75593;SDS011;64176;49.156;7.810;2023-05-06T03:38:39;5.78;;;4.20;;
75593;SDS011;64176;49.156;7.810;2023-05-06T03:41:25;6.53;;;4.93;;
75593;SDS011;64176;49.156;7.810;2023-05-06T03:44:10;7.82;;;4.28;;
75593;SDS011;64176;49.156;7.810;2023-05-06T03:46:54;4.93;;;4.20;;
75593;SDS011;64176;49.156;7.810;2023-05-06T03:49:38;5.10;;;3.75;;
75593;SDS011;64176;49.156;7.810;2023-05-06T03:52:23;6.97;;;5.00;;
75593;SDS011;64176;49.156;7.810;2023-05-06T03:55:08;13.35;;;6.13;;
75593;SDS011;64176;49.156;7.810;2023-05-06T03:57:53;18.42;;;6.13;;
75593;SDS011;64176;49.156;7.810;2023-05-06T04:00:39;9.68;;;6.05;;
75593;SDS011;64176;49.156;7.810;2023-05-06T04:03:24;9.20;;;5.20;;
75593;SDS011;64176;49.156;7.810;2023-05-06T04:06:09;7.35;;;4.75;;
75593;SDS011;64176;49.156;7.810;2023-05-06T04:08:53;7.28;;;4.43;;
75593;SDS011;64176;49.156;7.810;2023-05-06T04:11:38;9.20;;;5.07;;
75593;SDS011;64176;49.156;7.810;2023-05-06T04:14:24;119.82;;;16.65;;
75593;SDS011;64176;49.156;7.810;2023-05-06T04:17:08;11.45;;;6.70;;
75593;SDS011;64176;49.156;7.810;2023-05-06T04:19:52;21.27;;;8.80;;
75593;SDS011;64176;49.156;7.810;2023-05-06T04:22:36;18.38;;;7.45;;
75593;SDS011;64176;49.156;7.810;2023-05-06T04:25:22;118.10;;;17.13;;
75593;SDS011;64176;49.156;7.810;2023-05-06T04:28:07;18.05;;;8.00;;
75593;SDS011;64176;49.156;7.810;2023-05-06T04:30:54;13.88;;;6.93;;
75593;SDS011;64176;49.156;7.810;2023-05-06T04:33:48;9.85;;;6.25;;
75593;SDS011;64176;49.156;7.810;2023-05-06T04:36:36;22.85;;;10.38;;
75593;SDS011;64176;49.156;7.810;2023-05-06T04:39:30;17.45;;;7.47;;
75593;SDS011;64176;49.156;7.810;2023-05-06T04:42:15;16.85;;;7.85;;
75593;SDS011;64176;49.156;7.810;2023-05-06T04:45:07;16.55;;;6.68;;
75593;SDS011;64176;49.156;7.810;2023-05-06T04:47:54;14.25;;;7.28;;
75593;SDS011;64176;49.156;7.810;2023-05-06T04:50:40;11.30;;;5.82;;
75593;SDS011;64176;49.156;7.810;2023-05-06T04:53:24;12.43;;;6.70;;
75593;SDS011;64176;49.156;7.810;2023-05-06T04:56:11;35.28;;;9.15;;
75593;SDS011;64176;49.156;7.810;2023-05-06T04:58:56;27.35;;;6.63;;
75593;SDS011;64176;49.156;7.810;2023-05-06T05:01:40;83.57;;;16.35;;
75593;SDS011;64176;49.156;7.810;2023-05-06T05:04:25;104.57;;;16.42;;
75593;SDS011;64176;49.156;7.810;2023-05-06T05:07:10;33.67;;;8.50;;
75593;SDS011;64176;49.156;7.810;2023-05-06T05:09:54;34.42;;;11.70;;
75593;SDS011;64176;49.156;7.810;2023-05-06T05:12:39;26.42;;;8.63;;
75593;SDS011;64176;49.156;7.810;2023-05-06T05:15:23;12.88;;;5.65;;
75593;SDS011;64176;49.156;7.810;2023-05-06T05:18:07;10.00;;;6.60;;
75593;SDS011;64176;49.156;7.810;2023-05-06T05:20:52;13.48;;;7.60;;
75593;SDS011;64176;49.156;7.810;2023-05-06T05:23:37;75.90;;;10.55;;
75593;SDS011;64176;49.156;7.810;2023-05-06T05:26:21;48.25;;;9.50;;
75593;SDS011;64176;49.156;7.810;2023-05-06T05:29:08;30.35;;;8.48;;
75593;SDS011;64176;49.156;7.810;2023-05-06T05:31:54;51.35;;;10.57;;
75593;SDS011;64176;49.156;7.810;2023-05-06T05:34:41;38.53;;;8.02;;
75593;SDS011;64176;49.156;7.810;2023-05-06T05:37:28;17.25;;;7.82;;
75593;SDS011;64176;49.156;7.810;2023-05-06T05:40:12;9.20;;;6.57;;
75593;SDS011;64176;49.156;7.810;2023-05-06T05:43:03;11.60;;;6.07;;
75593;SDS011;64176;49.156;7.810;2023-05-06T05:45:53;14.40;;;6.32;;
75593;SDS011;64176;49.156;7.810;2023-05-06T05:48:37;9.43;;;7.18;;
75593;SDS011;64176;49.156;7.810;2023-05-06T05:51:23;11.48;;;7.80;;
75593;SDS011;64176;49.156;7.810;2023-05-06T05:54:08;13.45;;;12.02;;
75593;SDS011;64176;49.156;7.810;2023-05-06T05:56:53;21.85;;;18.73;;
75593;SDS011;64176;49.156;7.810;2023-05-06T05:59:38;10.95;;;8.88;;
75593;SDS011;64176;49.156;7.810;2023-05-06T06:02:24;10.93;;;6.90;;
75593;SDS011;64176;49.156;7.810;2023-05-06T06:05:08;13.20;;;7.57;;
75593;SDS011;64176;49.156;7.810;2023-05-06T06:07:52;10.27;;;6.45;;
75593;SDS011;64176;49.156;7.810;2023-05-06T06:10:37;9.65;;;6.38;;
75593;SDS011;64176;49.156;7.810;2023-05-06T06:13:27;8.23;;;5.93;;
75593;SDS011;64176;49.156;7.810;2023-05-06T06:16:11;9.77;;;6.47;;
75593;SDS011;64176;49.156;7.810;2023-05-06T06:18:54;9.32;;;6.07;;
75593;SDS011;64176;49.156;7.810;2023-05-06T06:21:38;8.65;;;6.07;;
75593;SDS011;64176;49.156;7.810;2023-05-06T06:24:23;8.63;;;6.45;;
75593;SDS011;64176;49.156;7.810;2023-05-06T06:27:07;9.40;;;6.68;;
75593;SDS011;64176;49.156;7.810;2023-05-06T06:29:52;10.00;;;6.38;;
75593;SDS011;64176;49.156;7.810;2023-05-06T06:32:39;12.98;;;6.82;;
75593;SDS011;64176;49.156;7.810;2023-05-06T06:35:30;10.05;;;6.25;;
75593;SDS011;64176;49.156;7.810;2023-05-06T06:38:14;8.82;;;6.40;;
75593;SDS011;64176;49.156;7.810;2023-05-06T06:41:00;9.40;;;6.78;;
75593;SDS011;64176;49.156;7.810;2023-05-06T06:43:44;9.00;;;5.72;;
75593;SDS011;64176;49.156;7.810;2023-05-06T06:46:41;8.32;;;6.53;;
75593;SDS011;64176;49.156;7.810;2023-05-06T06:49:25;10.38;;;6.63;;
75593;SDS011;64176;49.156;7.810;2023-05-06T06:52:09;11.10;;;7.03;;
75593;SDS011;64176;49.156;7.810;2023-05-06T06:54:53;7.68;;;6.30;;
75593;SDS011;64176;49.156;7.810;2023-05-06T06:57:40;8.77;;;6.65;;
75593;SDS011;64176;49.156;7.810;2023-05-06T07:00:24;8.57;;;7.35;;
75593;SDS011;64176;49.156;7.810;2023-05-06T07:03:09;10.93;;;6.55;;
75593;SDS011;64176;49.156;7.810;2023-05-06T07:05:53;10.30;;;7.28;;
75593;SDS011;64176;49.156;7.810;2023-05-06T07:08:37;11.13;;;6.43;;
75593;SDS011;64176;49.156;7.810;2023-05-06T07:11:21;11.63;;;8.27;;
75593;SDS011;64176;49.156;7.810;2023-05-06T07:14:05;10.63;;;7.47;;
75593;SDS011;64176;49.156;7.810;2023-05-06T07:16:50;10.95;;;7.20;;
75593;SDS011;64176;49.156;7.810;2023-05-06T07:19:34;9.27;;;6.70;;
75593;SDS011;64176;49.156;7.810;2023-05-06T07:22:17;10.63;;;7.00;;
75593;SDS011;64176;49.156;7.810;2023-05-06T07:25:01;10.07;;;7.78;;
75593;SDS011;64176;49.156;7.810;2023-05-06T07:27:46;10.13;;;6.88;;
75593;SDS011;64176;49.156;7.810;2023-05-06T07:30:30;10.60;;;7.30;;
75593;SDS011;64176;49.156;7.810;2023-05-06T07:33:14;9.90;;;7.30;;
75593;SDS011;64176;49.156;7.810;2023-05-06T07:35:58;8.85;;;6.68;;
75593;SDS011;64176;49.156;7.810;2023-05-06T07:38:41;10.25;;;7.15;;
75593;SDS011;64176;49.156;7.810;2023-05-06T07:41:25;8.13;;;6.82;;
75593;SDS011;64176;49.156;7.810;2023-05-06T07:44:09;8.90;;;5.60;;
75593;SDS011;64176;49.156;7.810;2023-05-06T07:46:53;7.20;;;5.90;;
75593;SDS011;64176;49.156;7.810;2023-05-06T07:49:40;7.05;;;5.18;;
75593;SDS011;64176;49.156;7.810;2023-05-06T07:52:24;5.72;;;4.88;;
75593;SDS011;64176;49.156;7.810;2023-05-06T07:55:08;6.60;;;4.95;;
75593;SDS011;64176;49.156;7.810;2023-05-06T07:57:55;9.95;;;5.00;;
75593;SDS011;64176;49.156;7.810;2023-05-06T08:00:39;6.32;;;5.03;;
75593;SDS011;64176;49.156;7.810;2023-05-06T08:03:25;4.75;;;3.97;;
75593;SDS011;64176;49.156;7.810;2023-05-06T08:06:10;4.97;;;4.03;;
75593;SDS011;64176;49.156;7.810;2023-05-06T08:08:56;4.88;;;4.20;;
75593;SDS011;64176;49.156;7.810;2023-05-06T08:11:40;5.38;;;4.53;;
75593;SDS011;64176;49.156;7.810;2023-05-06T08:14:24;5.90;;;4.75;;
75593;SDS011;64176;49.156;7.810;2023-05-06T08:17:11;5.35;;;3.35;;
75593;SDS011;64176;49.156;7.810;2023-05-06T08:19:56;4.72;;;3.80;;
75593;SDS011;64176;49.156;7.810;2023-05-06T08:22:40;3.08;;;2.70;;
75593;SDS011;64176;49.156;7.810;2023-05-06T08:25:24;5.90;;;3.80;;
75593;SDS011;64176;49.156;7.810;2023-05-06T08:28:08;3.45;;;3.15;;
75593;SDS011;64176;49.156;7.810;2023-05-06T08:30:51;5.82;;;3.30;;
75593;SDS011;64176;49.156;7.810;2023-05-06T08:33:35;4.68;;;2.60;;
75593;SDS011;64176;49.156;7.810;2023-05-06T08:36:19;5.85;;;2.30;;
75593;SDS011;64176;49.156;7.810;2023-05-06T08:39:04;4.00;;;2.30;;
75593;SDS011;64176;49.156;7.810;2023-05-06T08:41:51;4.05;;;2.40;;
75593;SDS011;64176;49.156;7.810;2023-05-06T08:44:37;2.47;;;1.98;;
75593;SDS011;64176;49.156;7.810;2023-05-06T08:47:22;3.90;;;1.83;;
75593;SDS011;64176;49.156;7.810;2023-05-06T08:50:09;2.65;;;1.50;;
75593;SDS011;64176;49.156;7.810;2023-05-06T08:52:54;3.42;;;1.10;;
75593;SDS011;64176;49.156;7.810;2023-05-06T08:55:42;0.80;;;0.80;;
75593;SDS011;64176;49.156;7.810;2023-05-06T08:58:26;1.95;;;1.00;;
75593;SDS011;64176;49.156;7.810;2023-05-06T09:01:12;2.20;;;1.15;;
75593;SDS011;64176;49.156;7.810;2023-05-06T09:03:56;2.85;;;1.35;;
75593;SDS011;64176;49.156;7.810;2023-05-06T09:06:44;3.30;;;1.10;;
75593;SDS011;64176;49.156;7.810;2023-05-06T09:09:28;3.05;;;0.80;;
75593;SDS011;64176;49.156;7.810;2023-05-06T09:12:12;1.45;;;0.93;;
75593;SDS011;64176;49.156;7.810;2023-05-06T09:14:57;1.95;;;1.00;;
75593;SDS011;64176;49.156;7.810;2023-05-06T09:17:41;4.75;;;2.30;;
75593;SDS011;64176;49.156;7.810;2023-05-06T09:20:31;2.45;;;1.27;;
75593;SDS011;64176;49.156;7.810;2023-05-06T09:23:16;1.17;;;0.90;;
75593;SDS011;64176;49.156;7.810;2023-05-06T09:26:01;2.35;;;1.15;;
75593;SDS011;64176;49.156;7.810;2023-05-06T09:28:45;1.10;;;0.90;;
75593;SDS011;64176;49.156;7.810;2023-05-06T09:31:32;0.70;;;0.70;;
75593;SDS011;64176;49.156;7.810;2023-05-06T09:34:22;0.68;;;0.60;;
75593;SDS011;64176;49.156;7.810;2023-05-06T09:37:10;3.47;;;1.80;;
75593;SDS011;64176;49.156;7.810;2023-05-06T09:39:55;1.70;;;0.70;;
75593;SDS011;64176;49.156;7.810;2023-05-06T09:42:42;0.40;;;0.40;;
75593;SDS011;64176;49.156;7.810;2023-05-06T09:45:28;0.43;;;0.40;;
75593;SDS011;64176;49.156;7.810;2023-05-06T09:50:59;1.75;;;0.70;;
75593;SDS011;64176;49.156;7.810;2023-05-06T09:53:44;0.88;;;0.70;;
75593;SDS011;64176;49.156;7.810;2023-05-06T09:56:29;3.13;;;1.35;;
75593;SDS011;64176;49.156;7.810;2023-05-06T09:59:14;2.03;;;0.90;;
75593;SDS011;64176;49.156;7.810;2023-05-06T10:02:01;0.68;;;0.52;;
75593;SDS011;64176;49.156;7.810;2023-05-06T10:04:45;1.92;;;0.60;;
75593;SDS011;64176;49.156;7.810;2023-05-06T10:07:37;0.75;;;0.52;;
75593;SDS011;64176;49.156;7.810;2023-05-06T10:10:23;1.10;;;0.63;;
75593;SDS011;64176;49.156;7.810;2023-05-06T10:13:11;1.85;;;0.57;;
75593;SDS011;64176;49.156;7.810;2023-05-06T10:15:56;2.28;;;0.60;;
75593;SDS011;64176;49.156;7.810;2023-05-06T10:18:47;1.23;;;0.60;;
75593;SDS011;64176;49.156;7.810;2023-05-06T10:21:38;0.55;;;0.40;;
75593;SDS011;64176;49.156;7.810;2023-05-06T10:24:31;0.70;;;0.60;;
75593;SDS011;64176;49.156;7.810;2023-05-06T10:27:20;1.10;;;0.60;;
75593;SDS011;64176;49.156;7.810;2023-05-06T10:30:06;2.38;;;1.27;;
75593;SDS011;64176;49.156;7.810;2023-05-06T10:32:56;1.63;;;0.90;;
75593;SDS011;64176;49.156;7.810;2023-05-06T10:35:47;1.02;;;0.52;;
75593;SDS011;64176;49.156;7.810;2023-05-06T10:38:41;3.30;;;1.00;;
75593;SDS011;64176;49.156;7.810;2023-05-06T10:41:29;1.08;;;0.70;;
75593;SDS011;64176;49.156;7.810;2023-05-06T10:44:14;1.20;;;0.50;;
75593;SDS011;64176;49.156;7.810;2023-05-06T10:46:58;0.90;;;0.65;;
75593;SDS011;64176;49.156;7.810;2023-05-06T10:50:14;5.47;;;0.57;;
75593;SDS011;64176;49.156;7.810;2023-05-06T10:53:02;1.85;;;0.60;;
75593;SDS011;64176;49.156;7.810;2023-05-06T10:55:46;0.80;;;0.80;;
75593;SDS011;64176;49.156;7.810;2023-05-06T10:58:50;0.90;;;0.68;;
75593;SDS011;64176;49.156;7.810;2023-05-06T11:01:35;1.10;;;0.50;;
75593;SDS011;64176;49.156;7.810;2023-05-06T11:04:23;1.30;;;0.50;;
75593;SDS011;64176;49.156;7.810;2023-05-06T11:07:10;1.55;;;0.60;;
75593;SDS011;64176;49.156;7.810;2023-05-06T11:10:00;1.58;;;0.65;;
75593;SDS011;64176;49.156;7.810;2023-05-06T11:12:49;2.03;;;0.55;;
75593;SDS011;64176;49.156;7.810;2023-05-06T11:26:47;1.35;;;0.68;;
75593;SDS011;64176;49.156;7.810;2023-05-06T11:29:32;1.27;;;0.60;;
75593;SDS011;64176;49.156;7.810;2023-05-06T11:32:19;0.73;;;0.50;;
75593;SDS011;64176;49.156;7.810;2023-05-06T11:35:05;3.88;;;0.80;;
75593;SDS011;64176;49.156;7.810;2023-05-06T11:37:55;3.47;;;0.90;;
75593;SDS011;64176;49.156;7.810;2023-05-06T11:40:40;1.23;;;0.40;;
75593;SDS011;64176;49.156;7.810;2023-05-06T11:43:24;1.65;;;0.57;;
75593;SDS011;64176;49.156;7.810;2023-05-06T11:46:08;1.05;;;0.77;;
75593;SDS011;64176;49.156;7.810;2023-05-06T11:48:52;2.90;;;1.35;;
75593;SDS011;64176;49.156;7.810;2023-05-06T11:51:36;2.72;;;2.50;;
75593;SDS011;64176;49.156;7.810;2023-05-06T11:54:23;2.97;;;1.48;;
75593;SDS011;64176;49.156;7.810;2023-05-06T11:57:08;1.65;;;0.68;;
75593;SDS011;64176;49.156;7.810;2023-05-06T11:59:53;2.45;;;0.63;;
75593;SDS011;64176;49.156;7.810;2023-05-06T12:02:37;0.98;;;0.70;;
75593;SDS011;64176;49.156;7.810;2023-05-06T12:05:22;2.08;;;0.70;;
75593;SDS011;64176;49.156;7.810;2023-05-06T12:08:07;2.58;;;0.52;;
75593;SDS011;64176;49.156;7.810;2023-05-06T12:10:53;2.00;;;0.80;;
75593;SDS011;64176;49.156;7.810;2023-05-06T12:13:40;0.98;;;0.70;;
75593;SDS011;64176;49.156;7.810;2023-05-06T12:16:24;0.98;;;0.60;;
75593;SDS011;64176;49.156;7.810;2023-05-06T12:19:09;1.85;;;0.70;;
75593;SDS011;64176;49.156;7.810;2023-05-06T12:21:53;2.08;;;0.50;;
75593;SDS011;64176;49.156;7.810;2023-05-06T12:24:38;3.13;;;0.77;;
75593;SDS011;64176;49.156;7.810;2023-05-06T12:27:31;1.17;;;0.90;;
75593;SDS011;64176;49.156;7.810;2023-05-06T12:30:27;1.38;;;0.50;;
75593;SDS011;64176;49.156;7.810;2023-05-06T12:33:14;3.38;;;0.60;;
75593;SDS011;64176;49.156;7.810;2023-05-06T12:36:05;3.20;;;0.60;;
75593;SDS011;64176;49.156;7.810;2023-05-06T12:38:50;1.40;;;0.47;;
75593;SDS011;64176;49.156;7.810;2023-05-06T12:41:42;1.10;;;0.95;;
75593;SDS011;64176;49.156;7.810;2023-05-06T12:47:20;1.00;;;0.60;;
75593;SDS011;64176;49.156;7.810;2023-05-06T12:50:05;1.00;;;0.43;;
75593;SDS011;64176;49.156;7.810;2023-05-06T12:52:50;1.73;;;0.70;;
75593;SDS011;64176;49.156;7.810;2023-05-06T12:55:38;2.17;;;0.80;;
75593;SDS011;64176;49.156;7.810;2023-05-06T12:58:24;2.15;;;1.08;;
75593;SDS011;64176;49.156;7.810;2023-05-06T13:01:08;1.58;;;0.70;;
75593;SDS011;64176;49.156;7.810;2023-05-06T13:03:55;2.33;;;0.70;;
75593;SDS011;64176;49.156;7.810;2023-05-06T13:06:40;1.05;;;0.80;;
75593;SDS011;64176;49.156;7.810;2023-05-06T13:09:24;0.80;;;0.60;;
75593;SDS011;64176;49.156;7.810;2023-05-06T13:12:10;1.58;;;0.75;;
75593;SDS011;64176;49.156;7.810;2023-05-06T13:14:54;1.13;;;0.70;;
75593;SDS011;64176;49.156;7.810;2023-05-06T13:17:41;2.22;;;0.80;;
75593;SDS011;64176;49.156;7.810;2023-05-06T13:20:25;1.77;;;0.65;;
75593;SDS011;64176;49.156;7.810;2023-05-06T13:23:09;0.98;;;0.63;;
75593;SDS011;64176;49.156;7.810;2023-05-06T13:25:54;1.52;;;0.70;;
75593;SDS011;64176;49.156;7.810;2023-05-06T13:28:42;0.60;;;0.50;;
75593;SDS011;64176;49.156;7.810;2023-05-06T13:31:26;1.63;;;0.70;;
75593;SDS011;64176;49.156;7.810;2023-05-06T13:34:11;1.63;;;0.70;;
75593;SDS011;64176;49.156;7.810;2023-05-06T13:36:55;2.25;;;0.90;;
75593;SDS011;64176;49.156;7.810;2023-05-06T13:39:41;1.10;;;0.60;;
75593;SDS011;64176;49.156;7.810;2023-05-06T13:42:25;2.58;;;0.77;;
75593;SDS011;64176;49.156;7.810;2023-05-06T13:45:08;1.40;;;0.60;;
75593;SDS011;64176;49.156;7.810;2023-05-06T13:47:53;1.00;;;0.60;;
75593;SDS011;64176;49.156;7.810;2023-05-06T13:50:37;2.08;;;1.00;;
75593;SDS011;64176;49.156;7.810;2023-05-06T13:53:21;0.98;;;0.60;;
75593;SDS011;64176;49.156;7.810;2023-05-06T13:56:05;1.85;;;1.05;;
75593;SDS011;64176;49.156;7.810;2023-05-06T13:58:50;1.05;;;0.50;;
75593;SDS011;64176;49.156;7.810;2023-05-06T14:01:36;2.67;;;1.05;;
75593;SDS011;64176;49.156;7.810;2023-05-06T14:04:20;1.10;;;0.80;;
75593;SDS011;64176;49.156;7.810;2023-05-06T14:07:04;1.38;;;1.00;;
75593;SDS011;64176;49.156;7.810;2023-05-06T14:09:48;4.03;;;0.90;;
75593;SDS011;64176;49.156;7.810;2023-05-06T14:12:32;1.85;;;0.70;;
75593;SDS011;64176;49.156;7.810;2023-05-06T14:15:16;1.67;;;0.77;;
75593;SDS011;64176;49.156;7.810;2023-05-06T14:18:00;0.95;;;0.40;;
75593;SDS011;64176;49.156;7.810;2023-05-06T14:20:44;1.00;;;0.90;;
75593;SDS011;64176;49.156;7.810;2023-05-06T14:23:28;1.08;;;0.70;;
75593;SDS011;64176;49.156;7.810;2023-05-06T14:26:12;1.70;;;0.98;;
75593;SDS011;64176;49.156;7.810;2023-05-06T14:28:58;12.93;;;6.65;;
75593;SDS011;64176;49.156;7.810;2023-05-06T14:31:42;3.92;;;2.50;;
75593;SDS011;64176;49.156;7.810;2023-05-06T14:34:32;1.83;;;1.15;;
75593;SDS011;64176;49.156;7.810;2023-05-06T14:37:19;1.60;;;0.90;;
75593;SDS011;64176;49.156;7.810;2023-05-06T14:40:04;2.10;;;1.02;;
75593;SDS011;64176;49.156;7.810;2023-05-06T14:42:49;1.42;;;0.80;;
75593;SDS011;64176;49.156;7.810;2023-05-06T14:45:36;1.90;;;1.13;;
75593;SDS011;64176;49.156;7.810;2023-05-06T14:48:20;1.10;;;0.70;;
75593;SDS011;64176;49.156;7.810;2023-05-06T14:51:04;0.60;;;0.52;;
75593;SDS011;64176;49.156;7.810;2023-05-06T14:53:49;1.70;;;1.00;;
75593;SDS011;64176;49.156;7.810;2023-05-06T14:56:33;1.02;;;0.47;;
75593;SDS011;64176;49.156;7.810;2023-05-06T14:59:17;2.63;;;1.75;;
75593;SDS011;64176;49.156;7.810;2023-05-06T15:02:02;1.33;;;1.20;;
75593;SDS011;64176;49.156;7.810;2023-05-06T15:04:46;1.60;;;0.60;;
75593;SDS011;64176;49.156;7.810;2023-05-06T15:07:30;1.58;;;0.90;;
75593;SDS011;64176;49.156;7.810;2023-05-06T15:10:17;1.85;;;0.90;;
75593;SDS011;64176;49.156;7.810;2023-05-06T15:13:06;2.15;;;1.02;;
75593;SDS011;64176;49.156;7.810;2023-05-06T15:15:51;1.20;;;0.52;;
75593;SDS011;64176;49.156;7.810;2023-05-06T15:18:35;1.55;;;1.10;;
75593;SDS011;64176;49.156;7.810;2023-05-06T15:21:20;0.75;;;0.75;;
75593;SDS011;64176;49.156;7.810;2023-05-06T15:24:04;0.70;;;0.68;;
75593;SDS011;64176;49.156;7.810;2023-05-06T15:26:48;0.70;;;0.70;;
75593;SDS011;64176;49.156;7.810;2023-05-06T15:29:32;2.47;;;1.10;;
75593;SDS011;64176;49.156;7.810;2023-05-06T15:32:21;3.00;;;0.98;;
75593;SDS011;64176;49.156;7.810;2023-05-06T15:35:05;1.98;;;1.27;;
75593;SDS011;64176;49.156;7.810;2023-05-06T15:37:52;2.67;;;0.80;;
75593;SDS011;64176;49.156;7.810;2023-05-06T15:40:38;1.10;;;0.82;;
75593;SDS011;64176;49.156;7.810;2023-05-06T15:43:25;2.50;;;1.92;;
75593;SDS011;64176;49.156;7.810;2023-05-06T15:46:10;1.83;;;0.98;;
75593;SDS011;64176;49.156;7.810;2023-05-06T15:48:54;1.65;;;1.30;;
75593;SDS011;64176;49.156;7.810;2023-05-06T15:51:39;2.88;;;1.80;;
75593;SDS011;64176;49.156;7.810;2023-05-06T15:54:23;5.25;;;1.00;;
75593;SDS011;64176;49.156;7.810;2023-05-06T15:57:09;1.88;;;1.42;;
75593;SDS011;64176;49.156;7.810;2023-05-06T15:59:53;1.75;;;0.65;;
75593;SDS011;64176;49.156;7.810;2023-05-06T16:02:37;1.40;;;1.30;;
75593;SDS011;64176;49.156;7.810;2023-05-06T16:05:21;1.65;;;1.20;;
75593;SDS011;64176;49.156;7.810;2023-05-06T16:08:05;2.70;;;1.52;;
75593;SDS011;64176;49.156;7.810;2023-05-06T16:10:49;1.88;;;1.48;;
75593;SDS011;64176;49.156;7.810;2023-05-06T16:13:34;1.17;;;0.80;;
75593;SDS011;64176;49.156;7.810;2023-05-06T16:16:18;0.65;;;0.60;;
75593;SDS011;64176;49.156;7.810;2023-05-06T16:19:02;1.67;;;0.80;;
75593;SDS011;64176;49.156;7.810;2023-05-06T16:21:46;2.17;;;1.02;;
75593;SDS011;64176;49.156;7.810;2023-05-06T16:24:33;1.00;;;0.90;;
75593;SDS011;64176;49.156;7.810;2023-05-06T16:27:17;1.83;;;1.00;;
75593;SDS011;64176;49.156;7.810;2023-05-06T16:30:01;1.80;;;1.13;;
75593;SDS011;64176;49.156;7.810;2023-05-06T16:32:45;0.88;;;0.80;;
75593;SDS011;64176;49.156;7.810;2023-05-06T16:35:29;1.73;;;0.95;;
75593;SDS011;64176;49.156;7.810;2023-05-06T16:38:15;1.77;;;1.00;;
75593;SDS011;64176;49.156;7.810;2023-05-06T16:40:59;2.53;;;1.10;;
75593;SDS011;64176;49.156;7.810;2023-05-06T16:43:42;1.40;;;0.88;;
75593;SDS011;64176;49.156;7.810;2023-05-06T16:46:26;2.20;;;1.30;;
75593;SDS011;64176;49.156;7.810;2023-05-06T16:49:11;2.70;;;1.75;;
75593;SDS011;64176;49.156;7.810;2023-05-06T16:51:55;1.60;;;1.50;;
75593;SDS011;64176;49.156;7.810;2023-05-06T16:54:43;2.78;;;0.70;;
75593;SDS011;64176;49.156;7.810;2023-05-06T16:57:27;4.30;;;3.42;;
75593;SDS011;64176;49.156;7.810;2023-05-06T17:00:12;3.70;;;2.30;;
75593;SDS011;64176;49.156;7.810;2023-05-06T17:02:59;2.30;;;1.38;;
75593;SDS011;64176;49.156;7.810;2023-05-06T17:05:46;3.35;;;1.48;;